createdAt,value
2023-01-30T00:02:11.202Z,3.80
2023-01-30T00:05:12.783Z,3.60
2023-01-30T00:08:14.375Z,3.60
2023-01-30T00:11:17.329Z,3.80
2023-01-30T00:14:18.799Z,3.80
2023-01-30T00:17:20.261Z,3.90
2023-01-30T00:20:21.721Z,3.90
2023-01-30T00:23:23.280Z,3.90
2023-01-30T00:26:24.813Z,5.50
2023-01-30T00:29:26.288Z,4.00
2023-01-30T00:32:27.760Z,3.90
2023-01-30T00:35:29.344Z,3.80
2023-01-30T00:38:30.864Z,3.90
2023-01-30T00:41:52.309Z,3.80
2023-01-30T00:45:12.443Z,4.00
2023-01-30T00:48:13.920Z,3.80
2023-01-30T00:51:15.461Z,4.00
2023-01-30T00:54:16.996Z,3.60
2023-01-30T00:57:18.507Z,3.90
2023-01-30T01:00:20.828Z,4.00
2023-01-30T01:03:22.639Z,4.30
2023-01-30T01:06:24.150Z,4.40
2023-01-30T01:09:25.928Z,4.30
2023-01-30T01:12:27.393Z,4.20
2023-01-30T01:15:28.877Z,4.00
2023-01-30T01:18:30.454Z,4.00
2023-01-30T01:21:31.951Z,4.30
2023-01-30T01:24:33.419Z,4.60
2023-01-30T01:27:34.931Z,4.30
2023-01-30T01:30:37.546Z,4.40
2023-01-30T01:33:39.292Z,3.90
2023-01-30T01:36:56.394Z,4.50
2023-01-30T01:40:16.808Z,4.40
2023-01-30T01:43:19.850Z,4.50
2023-01-30T01:46:23.827Z,4.40
2023-01-30T01:49:30.383Z,4.80
2023-01-30T01:52:32.068Z,2.40
2023-01-30T01:55:34.122Z,4.10
2023-01-30T01:58:37.204Z,4.20
2023-01-30T02:01:38.668Z,4.40
2023-01-30T02:04:59.993Z,4.70
2023-01-30T02:08:16.466Z,4.20
2023-01-30T02:11:18.172Z,4.30
2023-01-30T02:14:20.679Z,2.10
2023-01-30T02:17:23.282Z,4.60
2023-01-30T02:20:37.026Z,4.80
2023-01-30T02:23:56.179Z,4.50
2023-01-30T02:27:16.593Z,4.60
2023-01-30T02:30:36.656Z,4.50
2023-01-30T02:33:50.084Z,4.70
2023-01-30T02:36:51.718Z,4.50
2023-01-30T02:39:53.179Z,4.80
2023-01-30T02:43:04.738Z,4.80
2023-01-30T02:46:15.964Z,4.90
2023-01-30T02:49:21.113Z,4.80
2023-01-30T02:52:23.059Z,5.10
2023-01-30T02:55:26.532Z,5.20
2023-01-30T02:58:34.185Z,4.90
2023-01-30T03:01:54.005Z,5.10
2023-01-30T03:04:58.452Z,4.70
2023-01-30T03:08:08.780Z,5.10
2023-01-30T03:11:10.664Z,5.10
2023-01-30T03:14:21.055Z,5.30
2023-01-30T03:17:24.607Z,7.20
2023-01-30T03:20:26.093Z,4.60
2023-01-30T03:23:27.579Z,4.60
2023-01-30T03:26:32.857Z,5.00
2023-01-30T03:29:34.535Z,5.10
2023-01-30T03:32:36.055Z,4.80
2023-01-30T03:35:37.690Z,5.20
2023-01-30T03:38:39.232Z,4.60
2023-01-30T03:41:40.748Z,5.30
2023-01-30T03:44:42.252Z,3.80
2023-01-30T03:47:43.806Z,5.20
2023-01-30T03:50:45.351Z,5.10
2023-01-30T03:53:46.843Z,5.30
2023-01-30T03:56:48.356Z,5.10
2023-01-30T03:59:49.842Z,5.20
2023-01-30T04:02:52.960Z,4.90
2023-01-30T04:05:54.459Z,3.50
2023-01-30T04:08:55.930Z,5.00
2023-01-30T04:11:57.570Z,5.30
2023-01-30T04:14:59.084Z,5.10
2023-01-30T04:18:00.610Z,4.90
2023-01-30T04:21:02.076Z,5.20
2023-01-30T04:24:03.692Z,5.10
2023-01-30T04:27:05.264Z,5.60
2023-01-30T04:30:07.098Z,5.00
2023-01-30T04:33:08.576Z,5.30
2023-01-30T04:36:10.685Z,5.40
2023-01-30T04:39:12.167Z,5.20
2023-01-30T04:42:13.654Z,5.50
2023-01-30T04:45:15.198Z,3.50
2023-01-30T04:48:17.351Z,5.40
2023-01-30T04:51:18.894Z,5.30
2023-01-30T04:54:20.463Z,5.50
2023-01-30T04:57:21.945Z,5.30
2023-01-30T05:00:23.797Z,5.50
2023-01-30T05:03:25.301Z,5.60
2023-01-30T05:06:26.921Z,5.60
2023-01-30T05:09:28.387Z,5.40
2023-01-30T05:12:30.612Z,5.50
2023-01-30T05:15:32.766Z,5.50
2023-01-30T05:18:34.268Z,5.60
2023-01-30T05:21:35.786Z,5.50
2023-01-30T05:24:37.313Z,5.40
2023-01-30T05:27:38.835Z,5.70
2023-01-30T05:30:40.415Z,5.70
2023-01-30T05:33:42.030Z,5.50
2023-01-30T05:36:43.541Z,5.60
2023-01-30T05:39:45.034Z,5.50
2023-01-30T05:42:46.531Z,5.70
2023-01-30T05:45:51.997Z,5.70
2023-01-30T05:48:53.526Z,5.80
2023-01-30T05:51:55.047Z,5.60
2023-01-30T05:54:56.535Z,6.00
2023-01-30T05:57:58.007Z,6.00
2023-01-30T06:01:00.436Z,6.20
2023-01-30T06:04:02.839Z,6.10
2023-01-30T06:07:04.328Z,5.90
2023-01-30T06:10:06.055Z,5.80
2023-01-30T06:13:07.615Z,6.20
2023-01-30T06:16:11.942Z,6.20
2023-01-30T06:19:13.537Z,6.10
2023-01-30T06:22:15.013Z,6.00
2023-01-30T06:25:16.868Z,6.20
2023-01-30T06:28:19.127Z,6.30
2023-01-30T06:31:20.690Z,6.20
2023-01-30T06:34:22.193Z,6.10
2023-01-30T06:37:23.708Z,6.40
2023-01-30T06:40:25.237Z,6.20
2023-01-30T06:43:26.741Z,5.90
2023-01-30T06:46:28.305Z,6.20
2023-01-30T06:49:29.839Z,6.40
2023-01-30T06:52:31.546Z,6.70
2023-01-30T06:55:35.376Z,6.10
2023-01-30T06:58:36.945Z,6.50
2023-01-30T07:01:39.511Z,6.10
2023-01-30T07:04:41.532Z,6.40
2023-01-30T07:07:43.027Z,6.40
2023-01-30T07:10:45.054Z,6.60
2023-01-30T07:13:46.510Z,6.90
2023-01-30T07:16:48.074Z,6.70
2023-01-30T07:19:49.686Z,6.70
2023-01-30T07:22:55.320Z,6.40
2023-01-30T07:25:56.787Z,6.70
2023-01-30T07:28:58.513Z,6.20
2023-01-30T07:32:00.029Z,6.30
2023-01-30T07:35:02.741Z,6.80
2023-01-30T07:38:05.731Z,6.60
2023-01-30T07:41:07.213Z,6.40
2023-01-30T07:44:09.032Z,6.60
2023-01-30T07:47:10.552Z,6.60
2023-01-30T07:50:12.087Z,6.70
2023-01-30T07:53:15.059Z,6.70
2023-01-30T07:56:18.520Z,6.50
2023-01-30T07:59:19.987Z,6.60
2023-01-30T08:02:21.483Z,6.80
2023-01-30T08:05:22.959Z,6.50
2023-01-30T08:08:24.672Z,7.00
2023-01-30T08:11:26.119Z,6.70
2023-01-30T08:14:29.455Z,6.80
2023-01-30T08:17:30.939Z,6.70
2023-01-30T08:20:32.711Z,6.80
2023-01-30T08:23:34.351Z,6.80
2023-01-30T08:26:35.891Z,6.90
2023-01-30T08:29:37.371Z,6.70
2023-01-30T08:32:38.880Z,7.10
2023-01-30T08:35:40.401Z,7.00
2023-01-30T08:38:41.848Z,7.00
2023-01-30T08:41:43.403Z,7.20
2023-01-30T08:44:44.862Z,7.00
2023-01-30T08:47:46.352Z,7.00
2023-01-30T08:50:47.943Z,7.10
2023-01-30T08:53:49.472Z,7.00
2023-01-30T08:56:52.722Z,6.80
2023-01-30T08:59:54.257Z,7.10
2023-01-30T09:02:56.368Z,7.40
2023-01-30T09:05:57.857Z,7.10
2023-01-30T09:09:01.932Z,7.30
2023-01-30T09:12:03.478Z,8.40
2023-01-30T09:15:05.261Z,6.80
2023-01-30T09:18:06.738Z,7.20
2023-01-30T09:21:09.129Z,9.60
2023-01-30T09:24:10.595Z,5.50
2023-01-30T09:27:12.337Z,6.80
2023-01-30T09:30:14.047Z,7.10
2023-01-30T09:33:17.767Z,7.10
2023-01-30T09:36:19.251Z,7.40
2023-01-30T09:39:21.092Z,7.00
2023-01-30T09:42:28.429Z,7.30
2023-01-30T09:45:37.216Z,7.10
2023-01-30T09:48:42.637Z,7.20
2023-01-30T09:51:50.833Z,7.20
2023-01-30T09:54:55.412Z,7.50
2023-01-30T09:57:58.313Z,7.30
2023-01-30T10:01:04.739Z,7.30
2023-01-30T10:04:24.979Z,7.50
2023-01-30T10:07:46.816Z,7.50
2023-01-30T10:11:10.047Z,7.10
2023-01-30T10:14:21.155Z,7.90
2023-01-30T10:17:30.375Z,7.20
2023-01-30T10:20:43.343Z,7.50
2023-01-30T10:24:03.002Z,7.50
2023-01-30T10:27:08.558Z,7.80
2023-01-30T10:30:14.085Z,7.40
2023-01-30T10:33:24.953Z,7.80
2023-01-30T10:36:49.672Z,7.80
2023-01-30T10:40:11.410Z,7.50
2023-01-30T10:43:29.840Z,7.50
2023-01-30T10:46:50.002Z,7.50
2023-01-30T10:49:55.988Z,8.20
2023-01-30T10:53:06.388Z,7.90
2023-01-30T10:56:16.735Z,7.90
2023-01-30T10:59:32.270Z,7.70
2023-01-30T11:02:33.713Z,7.80
2023-01-30T11:05:41.845Z,7.90
2023-01-30T11:08:43.415Z,7.40
2023-01-30T11:11:54.635Z,7.40
2023-01-30T11:14:59.822Z,7.80
2023-01-30T11:18:40.445Z,8.10
2023-01-30T11:21:42.323Z,7.40
2023-01-30T11:24:45.407Z,7.30
2023-01-30T11:28:04.017Z,7.90
2023-01-30T11:31:06.264Z,7.70
2023-01-30T11:34:18.227Z,8.00
2023-01-30T11:37:29.671Z,8.00
2023-01-30T11:40:37.355Z,8.20
2023-01-30T11:43:39.896Z,8.20
2023-01-30T11:46:42.720Z,7.70
2023-01-30T11:50:01.119Z,8.00
2023-01-30T11:53:21.411Z,8.00
2023-01-30T11:56:28.961Z,8.00
2023-01-30T11:59:32.130Z,8.10
2023-01-30T12:02:35.405Z,8.30
2023-01-30T12:05:42.137Z,7.90
2023-01-30T12:08:44.341Z,8.40
2023-01-30T12:11:46.062Z,8.40
2023-01-30T12:14:49.250Z,8.20
2023-01-30T12:18:13.451Z,8.30
2023-01-30T12:21:21.302Z,8.40
2023-01-30T12:24:28.477Z,8.40
2023-01-30T12:27:29.914Z,8.40
2023-01-30T12:30:42.418Z,8.20
2023-01-30T12:33:43.997Z,8.30
2023-01-30T12:36:50.734Z,8.40
2023-01-30T12:39:58.222Z,8.30
2023-01-30T12:43:07.446Z,8.00
2023-01-30T12:46:23.308Z,8.20
2023-01-30T12:49:43.697Z,8.10
2023-01-30T12:52:45.172Z,8.50
2023-01-30T12:56:05.416Z,9.60
2023-01-30T12:59:09.886Z,8.10
2023-01-30T13:02:14.501Z,8.30
2023-01-30T13:05:16.074Z,8.50
2023-01-30T13:08:26.858Z,8.40
2023-01-30T13:11:40.769Z,8.30
2023-01-30T13:14:42.224Z,8.40
2023-01-30T13:17:59.885Z,8.10
2023-01-30T13:21:20.075Z,8.40
2023-01-30T13:24:40.366Z,7.90
2023-01-30T13:27:44.617Z,8.40
2023-01-30T13:30:47.603Z,8.60
2023-01-30T13:33:51.116Z,8.50
2023-01-30T13:36:56.574Z,8.50
2023-01-30T13:40:12.174Z,8.60
2023-01-30T13:43:17.427Z,8.60
2023-01-30T13:46:28.985Z,8.60
2023-01-30T13:49:46.078Z,8.60
2023-01-30T13:52:53.335Z,8.70
2023-01-30T13:56:00.990Z,8.10
2023-01-30T13:59:15.597Z,8.20
2023-01-30T14:02:21.628Z,8.00
2023-01-30T14:05:48.237Z,8.60
2023-01-30T14:08:51.243Z,9.90
2023-01-30T14:11:57.292Z,8.40
2023-01-30T14:15:05.099Z,8.40
2023-01-30T14:18:26.224Z,8.60
2023-01-30T14:21:27.761Z,8.30
2023-01-30T14:24:31.317Z,8.60
2023-01-30T14:27:32.919Z,8.60
2023-01-30T14:30:36.205Z,9.60
2023-01-30T14:33:51.319Z,9.80
2023-01-30T14:36:53.129Z,8.80
2023-01-30T14:39:55.762Z,9.50
2023-01-30T14:43:13.340Z,9.90
2023-01-30T14:46:18.082Z,8.50
2023-01-30T14:49:24.764Z,8.30
2023-01-30T14:52:32.269Z,8.30
2023-01-30T14:55:33.906Z,8.80
2023-01-30T14:58:37.151Z,8.50
2023-01-30T15:01:59.648Z,9.80
2023-01-30T15:05:01.345Z,8.30
2023-01-30T15:08:10.070Z,8.50
2023-01-30T15:11:16.747Z,8.10
2023-01-30T15:14:22.194Z,7.80
2023-01-30T15:17:41.791Z,10.20
2023-01-30T15:20:43.439Z,8.30
2023-01-30T15:24:10.100Z,8.30
2023-01-30T15:27:17.936Z,6.50
2023-01-30T15:30:32.852Z,8.00
2023-01-30T15:33:43.144Z,8.20
2023-01-30T15:36:45.087Z,10.20
2023-01-30T15:39:46.761Z,8.10
2023-01-30T15:43:00.522Z,8.00
2023-01-30T15:46:17.993Z,7.90
2023-01-30T15:49:32.206Z,8.00
2023-01-30T15:52:40.121Z,7.90
2023-01-30T15:55:42.488Z,8.00
2023-01-30T15:58:44.467Z,6.20
2023-01-30T16:01:49.185Z,8.10
2023-01-30T16:05:03.084Z,8.80
2023-01-30T16:08:17.936Z,7.90
2023-01-30T16:11:36.773Z,8.10
2023-01-30T16:14:38.477Z,8.60
2023-01-30T16:17:40.229Z,9.00
2023-01-30T16:20:55.304Z,8.30
2023-01-30T16:24:04.759Z,9.90
2023-01-30T16:27:07.129Z,8.00
2023-01-30T16:30:09.310Z,9.30
2023-01-30T16:33:15.229Z,8.10
2023-01-30T16:36:16.712Z,8.00
2023-01-30T16:39:34.592Z,7.80
2023-01-30T16:42:37.006Z,7.80
2023-01-30T16:45:59.179Z,8.00
2023-01-30T16:49:03.816Z,7.50
2023-01-30T16:52:11.083Z,8.00
2023-01-30T16:55:20.521Z,7.90
2023-01-30T16:58:22.454Z,7.60
2023-01-30T17:01:36.449Z,7.70
2023-01-30T17:04:41.208Z,7.70
2023-01-30T17:07:42.874Z,8.70
2023-01-30T17:10:49.452Z,7.80
2023-01-30T17:14:08.337Z,7.60
2023-01-30T17:17:13.997Z,8.30
2023-01-30T17:20:18.592Z,7.60
2023-01-30T17:23:20.767Z,7.90
2023-01-30T17:26:25.218Z,7.30
2023-01-30T17:29:41.956Z,7.70
2023-01-30T17:32:44.528Z,7.70
2023-01-30T17:35:46.126Z,7.60
2023-01-30T17:38:47.634Z,9.30
2023-01-30T17:41:51.759Z,8.30
2023-01-30T17:44:54.011Z,7.40
2023-01-30T17:47:55.689Z,9.00
2023-01-30T17:50:57.183Z,7.20
2023-01-30T17:53:58.746Z,6.90
2023-01-30T17:57:04.927Z,7.60
2023-01-30T18:00:06.790Z,7.30
2023-01-30T18:03:08.359Z,7.10
2023-01-30T18:06:10.950Z,7.10
2023-01-30T18:09:14.493Z,7.30
2023-01-30T18:12:15.969Z,7.20
2023-01-30T18:15:17.884Z,7.30
2023-01-30T18:18:19.619Z,8.00
2023-01-30T18:21:24.248Z,7.10
2023-01-30T18:24:25.764Z,7.70
2023-01-30T18:27:27.253Z,7.80
2023-01-30T18:30:28.763Z,7.10
2023-01-30T18:33:31.689Z,7.50
2023-01-30T18:36:34.217Z,7.40
2023-01-30T18:39:38.137Z,7.20
2023-01-30T18:42:40.016Z,7.30
2023-01-30T18:45:41.559Z,7.30
2023-01-30T18:48:43.518Z,7.10
2023-01-30T18:51:45.015Z,6.70
2023-01-30T18:54:46.521Z,7.00
2023-01-30T18:57:48.107Z,6.80
2023-01-30T19:00:49.577Z,7.10
2023-01-30T19:03:54.109Z,6.70
2023-01-30T19:06:55.671Z,7.70
2023-01-30T19:09:57.235Z,6.80
2023-01-30T19:13:23.255Z,6.30
2023-01-30T19:16:25.509Z,6.40
2023-01-30T19:19:27.271Z,6.70
2023-01-30T19:22:28.810Z,6.70
2023-01-30T19:25:30.396Z,6.40
2023-01-30T19:28:32.222Z,6.50
2023-01-30T19:31:34.003Z,6.40
2023-01-30T19:34:35.675Z,6.20
2023-01-30T19:37:39.006Z,5.80
2023-01-30T19:40:44.258Z,6.50
2023-01-30T19:43:46.035Z,6.20
2023-01-30T19:46:47.655Z,6.20
2023-01-30T19:49:49.321Z,6.10
2023-01-30T19:52:53.607Z,6.10
2023-01-30T19:55:55.124Z,6.10
2023-01-30T19:58:58.748Z,6.10
2023-01-30T20:02:00.401Z,5.90
2023-01-30T20:05:02.609Z,5.80
2023-01-30T20:08:04.444Z,6.10
2023-01-30T20:11:07.134Z,5.70
2023-01-30T20:14:09.748Z,5.70
2023-01-30T20:17:16.463Z,6.10
2023-01-30T20:20:56.231Z,6.60
2023-01-30T20:24:37.951Z,6.30
2023-01-30T20:27:44.160Z,5.90
2023-01-30T20:30:54.657Z,5.30
2023-01-30T20:34:03.127Z,8.10
2023-01-30T20:37:13.615Z,5.50
2023-01-30T20:40:27.657Z,4.70
2023-01-30T20:48:15.547Z,4.50
2023-01-30T20:51:34.711Z,6.70
2023-01-30T20:54:45.327Z,6.80
2023-01-30T21:01:23.597Z,5.20
2023-01-30T21:04:25.282Z,8.90
2023-01-30T21:07:26.825Z,5.30
2023-01-30T21:10:28.289Z,5.50
2023-01-30T21:13:29.779Z,5.30
2023-01-30T21:16:32.265Z,5.40
2023-01-30T21:19:33.900Z,5.20
2023-01-30T21:22:35.369Z,5.20
2023-01-30T21:25:37.064Z,5.00
2023-01-30T21:28:39.045Z,4.90
2023-01-30T21:31:41.957Z,4.00
2023-01-30T21:34:43.715Z,5.30
2023-01-30T21:38:04.107Z,5.10
2023-01-30T21:41:24.241Z,4.80
2023-01-30T21:44:27.104Z,5.30
2023-01-30T21:47:28.589Z,5.10
2023-01-30T21:50:30.114Z,6.10
2023-01-30T21:53:33.382Z,5.40
2023-01-30T21:56:34.868Z,5.50
2023-01-30T21:59:36.579Z,5.60
2023-01-30T22:02:38.073Z,5.30
2023-01-30T22:05:42.881Z,5.20
2023-01-30T22:08:46.399Z,5.50
2023-01-30T22:11:49.162Z,5.40
2023-01-30T22:14:50.637Z,5.10
2023-01-30T22:17:52.120Z,5.60
2023-01-30T22:20:54.022Z,5.20
2023-01-30T22:23:55.911Z,5.30
2023-01-30T22:26:57.498Z,5.20
2023-01-30T22:29:58.978Z,5.60
2023-01-30T22:33:00.456Z,5.70
2023-01-30T22:36:03.166Z,5.50
2023-01-30T22:39:05.030Z,5.20
2023-01-30T22:42:07.047Z,5.10
2023-01-30T22:45:08.706Z,5.40
2023-01-30T22:48:10.151Z,5.60
2023-01-30T22:51:16.389Z,5.00
2023-01-30T22:54:18.112Z,5.20
2023-01-30T22:57:19.578Z,4.90
2023-01-30T23:00:21.396Z,5.20
2023-01-30T23:03:22.898Z,5.10
2023-01-30T23:06:24.939Z,5.10
2023-01-30T23:09:26.434Z,5.20
2023-01-30T23:12:46.842Z,4.80
2023-01-30T23:15:48.620Z,5.30
2023-01-30T23:18:56.206Z,5.20
2023-01-30T23:21:57.777Z,5.00
2023-01-30T23:24:59.256Z,5.00
2023-01-30T23:28:00.726Z,4.80
2023-01-30T23:31:06.328Z,4.70
2023-01-30T23:34:11.490Z,4.50
2023-01-30T23:37:13.006Z,5.00
2023-01-30T23:40:14.547Z,6.20
2023-01-30T23:43:16.417Z,4.50
2023-01-30T23:46:19.763Z,4.50
2023-01-30T23:49:21.484Z,4.70
2023-01-30T23:52:22.997Z,4.80
2023-01-30T23:55:24.477Z,5.20
2023-01-30T23:58:25.987Z,5.10
